Terminal Aerodrome Forecast
Issued by NWS

Home | Current Version | Previous Version | Text Only | Print | Product List | Glossary On
Versions: 1 2 3 4 5 6 7 8 9 10 11 12 13 14 15 16 17
628
FTUS44 KEPZ 271831 AAA
TAFLRU
TAF AMD
KLRU 271831Z 2719/2818 VRB03KT P6SM SCT070 SCT250
      TEMPO 2719/2720 VRB15G25KT -TSRA BKN060CB
     FM272000 05007G17KT P6SM VCTS SCT060CB
      TEMPO 2722/2802 VRB25G40KT P6SM -TSRA BKN040CB
     FM280600 31009G18KT P6SM VCSH SCT060 BKN100
     FM281200 34005KT P6SM FEW060 BKN100=

USA.gov is the U.S. government's official web portal to all federal, state and local government web resources and services.